createdAt,value
2018-11-02T00:01:25.635Z,8.23
2018-11-02T00:06:30.845Z,9.40
2018-11-02T00:11:36.181Z,8.03
2018-11-02T00:16:41.492Z,6.53
2018-11-02T00:21:46.427Z,6.43
2018-11-02T00:26:51.304Z,6.67
2018-11-02T00:31:56.215Z,8.10
2018-11-02T00:37:01.394Z,6.33
2018-11-02T00:42:07.153Z,6.87
2018-11-02T00:47:12.365Z,5.17
2018-11-02T00:52:17.800Z,6.10
2018-11-02T00:57:22.954Z,8.73
2018-11-02T01:02:27.879Z,8.33
2018-11-02T01:07:33.375Z,8.07
2018-11-02T01:12:39.315Z,7.60
2018-11-02T01:17:45.149Z,7.53
2018-11-02T01:22:50.405Z,5.80
2018-11-02T01:27:55.434Z,7.50
2018-11-02T01:33:00.378Z,6.30
2018-11-02T01:38:05.396Z,6.10
2018-11-02T01:43:10.648Z,6.57
2018-11-02T01:48:16.942Z,5.43
2018-11-02T01:53:21.869Z,7.20
2018-11-02T01:58:26.877Z,5.63
2018-11-02T02:03:31.781Z,10.13
2018-11-02T02:08:36.906Z,6.87
2018-11-02T02:13:42.931Z,9.40
2018-11-02T02:18:49.138Z,8.33
2018-11-02T02:23:56.209Z,7.20
2018-11-02T02:29:07.175Z,6.43
2018-11-02T02:34:15.076Z,8.37
2018-11-02T02:39:23.637Z,6.43
2018-11-02T02:44:29.596Z,8.67
2018-11-02T02:49:34.605Z,6.80
2018-11-02T02:54:39.533Z,7.40
2018-11-02T02:59:44.701Z,4.37
2018-11-02T03:04:49.641Z,5.77
2018-11-02T03:09:54.746Z,6.93
2018-11-02T03:14:59.771Z,7.00
2018-11-02T03:20:05.947Z,6.23
2018-11-02T03:25:11.984Z,6.57
2018-11-02T03:30:16.832Z,7.47
2018-11-02T03:35:21.752Z,7.47
2018-11-02T03:40:26.729Z,6.07
2018-11-02T03:45:31.730Z,6.07
2018-11-02T03:50:36.648Z,8.47
2018-11-02T03:55:42.326Z,8.50
2018-11-02T04:00:48.071Z,9.03
2018-11-02T04:05:52.900Z,8.57
2018-11-02T04:10:57.776Z,9.47
2018-11-02T04:16:02.785Z,8.30
2018-11-02T04:21:07.713Z,7.63
2018-11-02T04:26:12.862Z,8.90
2018-11-02T04:31:17.920Z,6.23
2018-11-02T04:36:22.853Z,6.57
2018-11-02T04:41:27.732Z,7.03
2018-11-02T04:46:32.628Z,6.60
2018-11-02T04:51:37.795Z,5.67
2018-11-02T04:56:43.074Z,6.43
2018-11-02T05:01:48.057Z,5.87
2018-11-02T05:06:52.905Z,7.00
2018-11-02T05:11:58.070Z,4.93
2018-11-02T05:17:02.942Z,5.67
2018-11-02T05:22:07.881Z,3.20
2018-11-02T05:27:13.079Z,4.47
2018-11-02T05:32:17.937Z,5.37
2018-11-02T05:37:22.908Z,4.30
2018-11-02T05:42:27.927Z,5.50
2018-11-02T05:47:32.837Z,5.17
2018-11-02T05:52:37.960Z,6.10
2018-11-02T05:57:43.177Z,11.47
2018-11-02T06:02:48.238Z,6.97
2018-11-02T06:07:53.223Z,7.20
2018-11-02T06:12:58.032Z,12.60
2018-11-02T06:18:02.965Z,13.80
2018-11-02T06:23:07.912Z,8.10
2018-11-02T06:28:13.348Z,9.93
2018-11-02T06:33:18.299Z,8.17
2018-11-02T06:38:23.344Z,8.13
2018-11-02T06:43:28.320Z,9.70
2018-11-02T06:48:33.225Z,6.40
2018-11-02T06:53:38.148Z,10.00
2018-11-02T06:58:43.166Z,8.30
2018-11-02T07:03:48.226Z,7.07
2018-11-02T07:08:53.059Z,6.03
2018-11-02T07:13:58.033Z,6.70
2018-11-02T07:19:03.618Z,5.53
2018-11-02T07:24:08.752Z,7.80
2018-11-02T07:29:14.406Z,10.27
2018-11-02T07:34:19.373Z,6.07
2018-11-02T07:39:24.365Z,5.50
2018-11-02T07:44:29.419Z,5.67
2018-11-02T07:49:35.405Z,5.47
2018-11-02T07:54:40.444Z,8.30
2018-11-02T07:59:45.453Z,12.10
2018-11-02T08:04:50.514Z,6.73
2018-11-02T08:09:55.366Z,9.87
2018-11-02T08:15:00.377Z,8.93
2018-11-02T08:20:05.724Z,11.43
2018-11-02T08:25:11.480Z,16.77
2018-11-02T08:30:18.967Z,8.03
2018-11-02T08:35:24.857Z,5.90
2018-11-02T08:40:29.983Z,9.67
2018-11-02T08:45:34.880Z,7.67
2018-11-02T08:50:39.838Z,10.03
2018-11-02T08:55:44.892Z,8.47
2018-11-02T09:00:52.216Z,6.60
2018-11-02T09:06:00.339Z,7.83
2018-11-02T09:11:05.460Z,6.90
2018-11-02T09:16:10.484Z,7.20
2018-11-02T09:21:15.493Z,5.40
2018-11-02T09:26:20.908Z,9.43
2018-11-02T09:31:26.695Z,12.80
2018-11-02T09:36:32.901Z,8.07
2018-11-02T09:41:44.245Z,5.23
2018-11-02T09:46:49.168Z,9.67
2018-11-02T09:51:57.359Z,7.00
2018-11-02T09:57:02.276Z,7.27
2018-11-02T10:02:09.128Z,7.20
2018-11-02T10:07:14.888Z,6.23
2018-11-02T10:12:20.221Z,7.87
2018-11-02T10:17:25.319Z,10.33
2018-11-02T10:22:30.247Z,11.20
2018-11-02T10:27:35.922Z,9.93
2018-11-02T10:32:41.880Z,11.07
2018-11-02T10:37:48.134Z,9.13
2018-11-02T10:42:55.708Z,12.10
2018-11-02T10:48:01.582Z,11.90
2018-11-02T10:53:06.713Z,19.37
2018-11-02T10:58:11.663Z,15.47
2018-11-02T11:03:16.820Z,13.37
2018-11-02T11:08:22.292Z,12.53
2018-11-02T11:13:27.503Z,13.50
2018-11-02T11:18:32.465Z,14.83
2018-11-02T11:23:37.490Z,8.30
2018-11-02T11:28:42.532Z,6.67
2018-11-02T11:33:47.544Z,6.53
2018-11-02T11:38:52.834Z,8.60
2018-11-02T11:43:57.929Z,10.17
2018-11-02T11:49:03.052Z,4.97
2018-11-02T11:54:07.894Z,5.87
2018-11-02T11:59:13.078Z,10.13
2018-11-02T12:04:18.557Z,7.83
2018-11-02T12:09:23.657Z,6.40
2018-11-02T12:14:28.595Z,4.80
2018-11-02T12:19:33.712Z,7.47
2018-11-02T12:24:38.731Z,8.07
2018-11-02T12:29:43.664Z,6.37
2018-11-02T12:34:51.796Z,3.53
2018-11-02T12:39:59.041Z,6.17
2018-11-02T12:45:03.924Z,10.03
2018-11-02T12:50:14.590Z,9.57
2018-11-02T12:55:21.054Z,10.13
2018-11-02T13:00:27.312Z,7.17
2018-11-02T13:05:32.291Z,7.30
2018-11-02T13:10:38.321Z,6.10
2018-11-02T13:15:43.305Z,5.27
2018-11-02T13:20:49.743Z,3.37
2018-11-02T13:25:55.641Z,3.80
2018-11-02T13:31:00.626Z,6.23
2018-11-02T13:36:06.040Z,3.30
2018-11-02T13:41:10.886Z,4.03
2018-11-02T13:46:15.766Z,4.80
2018-11-02T13:51:21.412Z,6.03
2018-11-02T14:02:37.809Z,3.50
2018-11-02T14:07:42.967Z,7.07
2018-11-02T14:12:48.324Z,10.50
2018-11-02T14:17:53.188Z,6.30
2018-11-02T14:22:59.306Z,2.50
2018-11-02T14:28:04.370Z,14.03
2018-11-02T14:33:09.314Z,5.90
2018-11-02T14:38:14.183Z,4.97
2018-11-02T14:43:19.301Z,4.53
2018-11-02T14:48:24.296Z,4.60
2018-11-02T14:53:29.750Z,7.90
2018-11-02T14:58:34.625Z,2.20
2018-11-02T15:03:41.561Z,2.93
2018-11-02T15:08:46.693Z,2.50
2018-11-02T15:13:51.870Z,5.13
2018-11-02T15:18:57.499Z,2.43
2018-11-02T15:24:03.748Z,3.13
2018-11-02T15:29:08.729Z,2.97
2018-11-02T15:34:13.781Z,3.77
2018-11-02T15:39:19.014Z,5.73
2018-11-02T15:44:24.084Z,5.70
2018-11-02T15:49:29.034Z,4.07
2018-11-02T15:54:34.028Z,9.67
2018-11-02T15:59:38.916Z,5.70
2018-11-02T16:04:43.824Z,7.30
2018-11-02T16:09:49.496Z,4.77
2018-11-02T16:14:54.594Z,10.87
2018-11-02T16:19:59.531Z,14.87
2018-11-02T16:25:05.121Z,19.07
2018-11-02T16:30:10.671Z,15.03
2018-11-02T16:35:15.629Z,15.10
2018-11-02T16:40:20.637Z,14.97
2018-11-02T16:45:26.719Z,17.97
2018-11-02T16:50:31.678Z,12.37
2018-11-02T16:55:36.575Z,12.20
2018-11-02T17:00:41.597Z,13.78
2018-11-02T17:05:46.982Z,17.30
2018-11-02T17:10:52.145Z,7.30
2018-11-02T17:15:57.149Z,10.40
2018-11-02T17:21:02.171Z,12.67
2018-11-02T17:26:07.499Z,11.93
2018-11-02T17:31:12.594Z,19.20
2018-11-02T17:36:17.706Z,12.60
2018-11-02T17:41:23.220Z,13.20
2018-11-02T17:46:28.341Z,22.27
2018-11-02T17:51:33.429Z,11.80
2018-11-02T17:56:38.590Z,14.37
2018-11-02T18:01:43.533Z,19.87
2018-11-02T18:06:48.758Z,15.47
2018-11-02T18:11:54.411Z,19.67
2018-11-02T18:16:59.338Z,19.03
2018-11-02T18:22:04.542Z,14.60
2018-11-02T18:27:09.581Z,16.80
2018-11-02T18:32:14.707Z,12.87
2018-11-02T18:37:19.782Z,22.90
2018-11-02T18:42:24.806Z,15.13
2018-11-02T18:47:34.866Z,15.20
2018-11-02T18:52:40.582Z,24.20
2018-11-02T18:57:47.660Z,14.07
2018-11-02T19:02:52.977Z,16.63
2018-11-02T19:07:58.056Z,26.17
2018-11-02T19:13:03.090Z,32.70
2018-11-02T19:18:09.024Z,16.90
2018-11-02T19:23:14.045Z,22.47
2018-11-02T19:28:19.152Z,27.63
2018-11-02T19:33:24.124Z,17.90
2018-11-02T19:38:29.110Z,12.70
2018-11-02T19:43:34.066Z,29.83
2018-11-02T19:48:39.124Z,16.37
2018-11-02T19:53:44.313Z,16.13
2018-11-02T19:58:49.761Z,18.60
2018-11-02T20:03:55.512Z,23.57
2018-11-02T20:09:00.512Z,17.13
2018-11-02T20:14:06.648Z,19.20
2018-11-02T20:19:11.658Z,14.57
2018-11-02T20:24:17.039Z,14.13
2018-11-02T20:29:21.968Z,25.30
2018-11-02T20:34:27.225Z,26.27
2018-11-02T20:39:32.201Z,30.97
2018-11-02T20:44:37.040Z,14.87
2018-11-02T20:49:42.005Z,21.20
2018-11-02T20:54:47.304Z,15.23
2018-11-02T20:59:52.201Z,15.13
2018-11-02T21:04:57.203Z,18.67
2018-11-02T21:10:02.393Z,26.63
2018-11-02T21:15:10.213Z,15.73
2018-11-02T21:20:16.472Z,12.90
2018-11-02T21:25:21.460Z,15.17
2018-11-02T21:30:27.132Z,20.93
2018-11-02T21:35:32.298Z,21.30
2018-11-02T21:40:37.764Z,26.53
2018-11-02T21:45:42.839Z,31.53
2018-11-02T21:50:47.899Z,24.97
2018-11-02T21:55:52.837Z,23.93
2018-11-02T22:00:57.929Z,18.50
2018-11-02T22:06:03.145Z,21.97
2018-11-02T22:11:08.721Z,16.70
2018-11-02T22:16:13.819Z,15.57
2018-11-02T22:21:18.792Z,18.17
2018-11-02T22:26:23.693Z,11.07
2018-11-02T22:31:28.831Z,16.97
2018-11-02T22:36:33.789Z,16.40
2018-11-02T22:41:39.141Z,9.53
2018-11-02T22:46:44.361Z,17.07
2018-11-02T22:51:49.335Z,9.07
2018-11-02T22:56:54.524Z,13.20
2018-11-02T23:02:09.117Z,17.53
2018-11-02T23:07:15.832Z,9.83
2018-11-02T23:12:22.485Z,13.13
2018-11-02T23:17:28.925Z,9.47
2018-11-02T23:22:34.597Z,10.10
2018-11-02T23:27:43.787Z,11.37
2018-11-02T23:32:56.609Z,17.20
2018-11-02T23:38:05.736Z,11.47
2018-11-02T23:43:12.063Z,9.90
2018-11-02T23:48:18.393Z,9.23
2018-11-02T23:53:23.891Z,8.73
2018-11-02T23:58:28.817Z,7.77
